Дата Пункты Температура Давл., мм. Влажн., % Ветер Погодные явления
Воздуха Воды Направл. Скорость
18.09.18 06:00 Одесса 13.0 21.0 765 82 З 1 06 ЧАСОВ
18.09.18 03:00 Одесса 13.0 21.0 765 82 З 1 03 ЧАСА
17.09.18 09:00 Одесса 15.0 21.0 765 68 С 0 21 ЧАС
17.09.18 06:00 Одесса 20.0 21.0 765 47 С 0 18 ЧАСОВ
17.09.18 03:00 Одесса 21.0 21.0 765 40 С-В 3 15 ЧАСОВ
17.09.18 12:00 Одесса 19.0 21.0 766 57 С-В 1 12 ЧАСОВ
17.09.18 09:00 Одесса 17.0 21.0 766 67 С 1 09 ЧАСОВ
17.09.18 06:00 Одесса 14.0 21.0 765 75 С-З 2 06 ЧАСОВ
17.09.18 03:00 Одесса 17.0 21.0 764 65 С-З 2 03 ЧАСА
16.09.18 09:00 Одесса 19.0 21.0 763 64 С-З 3 21 ЧАС
16.09.18 06:00 Одесса 22.0 21.0 761 57 С-З 3 18 ЧАСОВ
16.09.18 03:00 Одесса 23.0 21.0 760 58 С-З 3 15 ЧАСОВ
16.09.18 12:00 Одесса 21.0 21.0 760 70 С-З 2 12 ЧАСОВ
16.09.18 09:00 Одесса 19.0 21.0 759 81 С-З 3 09 ЧАСОВ
16.09.18 06:00 Одесса 16.0 21.0 758 91 З 1 06 ЧАСОВ
16.09.18 03:00 Одесса 17.0 21.0 758 97 З 1 03 ЧАСА
15.09.18 09:00 Одесса 18.0 22.0 758 95 С-З 1 21 ЧАС
15.09.18 06:00 Одесса 23.0 22.0 756 67 С 1 18 ЧАСОВ
15.09.18 03:00 Одесса 26.0 22.0 756 54 С-З 3 15 ЧАСОВ
15.09.18 12:00 Одесса 25.0 21.0 757 53 С 1 12 ЧАСОВ
Количество строк
1 2 3 4 5 6 7 8 9 10
Page 3 of 407